createdAt,value
2023-04-09T00:04:34.285Z,976.58
2023-04-09T00:14:34.369Z,976.50
2023-04-09T00:24:34.501Z,976.50
2023-04-09T00:34:34.713Z,976.48
2023-04-09T00:44:34.833Z,976.46
2023-04-09T00:54:35.060Z,976.42
2023-04-09T01:04:35.314Z,976.46
2023-04-09T01:14:35.281Z,976.45
2023-04-09T01:24:35.413Z,976.43
2023-04-09T01:34:35.599Z,976.37
2023-04-09T01:44:35.731Z,976.40
2023-04-09T01:54:35.964Z,976.42
2023-04-09T02:04:36.098Z,976.45
2023-04-09T02:14:36.296Z,976.49
2023-04-09T02:24:36.450Z,976.37
2023-04-09T02:34:36.532Z,976.46
2023-04-09T02:44:36.773Z,976.42
2023-04-09T02:54:36.983Z,976.42
2023-04-09T03:04:37.106Z,976.38
2023-04-09T03:14:37.299Z,976.33
2023-04-09T03:24:37.454Z,976.24
2023-04-09T03:34:37.688Z,976.17
2023-04-09T03:44:37.927Z,976.28
2023-04-09T03:54:38.143Z,976.23
2023-04-09T04:04:38.317Z,976.22
2023-04-09T04:14:38.409Z,976.20
2023-04-09T04:24:38.668Z,976.19
2023-04-09T04:34:38.872Z,976.19
2023-04-09T04:44:39.124Z,976.28
2023-04-09T04:54:39.332Z,976.29
2023-04-09T05:04:39.489Z,976.37
2023-04-09T05:14:39.586Z,976.55
2023-04-09T05:24:40.178Z,976.63
2023-04-09T05:34:40.569Z,976.62
2023-04-09T05:44:40.100Z,976.63
2023-04-09T05:54:40.338Z,976.59
2023-04-09T06:04:40.692Z,976.56
2023-04-09T06:14:41.080Z,976.61
2023-04-09T06:24:40.833Z,976.70
2023-04-09T06:34:41.022Z,976.66
2023-04-09T06:44:41.293Z,976.59
2023-04-09T06:54:41.392Z,976.73
2023-04-09T07:04:41.641Z,976.74
2023-04-09T07:14:41.702Z,976.78
2023-04-09T07:24:41.951Z,976.98
2023-04-09T07:34:42.169Z,976.91
2023-04-09T07:44:42.382Z,977.06
2023-04-09T07:54:42.616Z,977.00
2023-04-09T08:04:42.969Z,977.03
2023-04-09T08:14:42.920Z,977.07
2023-04-09T08:24:43.046Z,976.98
2023-04-09T08:34:43.184Z,977.12
2023-04-09T08:44:43.430Z,977.27
2023-04-09T08:54:43.675Z,977.26
2023-04-09T09:04:43.752Z,977.36
2023-04-09T09:14:43.930Z,977.20
2023-04-09T09:24:44.190Z,977.21
2023-04-09T09:34:44.280Z,977.16
2023-04-09T09:44:44.499Z,977.12
2023-04-09T09:54:44.702Z,977.11
2023-04-09T10:04:44.941Z,976.89
2023-04-09T10:14:45.050Z,977.02
2023-04-09T10:24:45.268Z,976.88
2023-04-09T10:34:45.453Z,976.95
2023-04-09T10:44:46.105Z,976.90
2023-04-09T10:54:45.942Z,976.72
2023-04-09T11:04:46.083Z,976.68
2023-04-09T11:14:46.140Z,976.52
2023-04-09T11:24:46.360Z,976.31
2023-04-09T11:34:46.541Z,976.32
2023-04-09T11:44:46.782Z,976.26
2023-04-09T11:54:46.982Z,976.25
2023-04-09T12:04:47.355Z,976.29
2023-04-09T12:14:47.317Z,976.35
2023-04-09T12:24:47.706Z,976.25
2023-04-09T12:34:47.653Z,976.38
2023-04-09T12:44:47.889Z,976.29
2023-04-09T12:54:49.061Z,976.26
2023-04-09T13:04:48.192Z,976.28
2023-04-09T13:14:48.442Z,976.08
2023-04-09T13:24:48.530Z,976.08
2023-04-09T13:34:48.971Z,975.94
2023-04-09T13:44:48.859Z,975.91
2023-04-09T13:54:49.050Z,975.88
2023-04-09T14:04:49.334Z,975.79
2023-04-09T14:14:49.470Z,975.56
2023-04-09T14:24:49.578Z,975.52
2023-04-09T14:34:49.749Z,975.50
2023-04-09T14:44:50.027Z,975.59
2023-04-09T14:54:50.103Z,975.62
2023-04-09T15:04:50.469Z,975.51
2023-04-09T15:14:50.464Z,975.37
2023-04-09T15:24:50.688Z,975.33
2023-04-09T15:34:50.882Z,975.28
2023-04-09T15:44:51.114Z,975.37
2023-04-09T15:54:51.318Z,975.34
2023-04-09T16:04:51.551Z,975.21
2023-04-09T16:14:51.905Z,975.22
2023-04-09T16:24:51.940Z,975.34
2023-04-09T16:34:51.998Z,975.39
2023-04-09T16:44:52.435Z,975.29
2023-04-09T16:54:52.425Z,975.34
2023-04-09T17:04:52.547Z,975.39
2023-04-09T17:14:52.733Z,975.52
2023-04-09T17:24:52.975Z,975.43
2023-04-09T17:34:53.154Z,975.66
2023-04-09T17:44:53.273Z,975.75
2023-04-09T17:54:53.473Z,975.72
2023-04-09T18:04:53.745Z,975.83
2023-04-09T18:14:53.849Z,975.89
2023-04-09T18:24:53.993Z,976.01
2023-04-09T18:34:54.205Z,976.13
2023-04-09T18:44:54.330Z,976.20
2023-04-09T18:54:54.797Z,976.22
2023-04-09T19:04:54.742Z,976.41
2023-04-09T19:14:54.856Z,976.59
2023-04-09T19:24:54.982Z,976.63
2023-04-09T19:34:55.182Z,976.68
2023-04-09T19:44:55.412Z,976.72
2023-04-09T19:54:55.862Z,976.72
2023-04-09T20:04:55.762Z,976.76
2023-04-09T20:14:56.111Z,976.71
2023-04-09T20:24:56.202Z,976.65
2023-04-09T20:34:56.311Z,976.61
2023-04-09T20:44:56.527Z,976.59
2023-04-09T20:54:56.725Z,976.58
2023-04-09T21:04:57.097Z,976.53
2023-04-09T21:14:57.062Z,976.68
2023-04-09T21:24:57.194Z,976.57
2023-04-09T21:34:57.385Z,976.53
2023-04-09T21:44:57.504Z,976.53
2023-04-09T21:54:57.628Z,976.56
2023-04-09T22:04:57.971Z,976.43
2023-04-09T22:14:57.872Z,976.45
2023-04-09T22:24:58.137Z,976.48
2023-04-09T22:34:58.468Z,976.43
2023-04-09T22:44:58.764Z,976.50
2023-04-09T22:54:58.520Z,976.43
2023-04-09T23:04:58.714Z,976.19
2023-04-09T23:14:58.862Z,976.11
2023-04-09T23:24:58.993Z,976.03
2023-04-09T23:34:59.173Z,976.01
2023-04-09T23:44:59.303Z,975.94
2023-04-09T23:54:59.482Z,975.79
